Time;durP1;ratioP1;P1;durP2;ratioP2;P2;SDS_P1;SDS_P2;PMS_P1;PMS_P2;Temp;Humidity;BMP_temperature;BMP_pressure;BME280_temperature;BME280_humidity;BME280_pressure;Samples;Min_cycle;Max_cycle;Signal;HPM_P1;HPM_P2
2021/09/10 00:01:24;;;;;;;8.37;7.50;;;;;;;20.17;65.39;156549.06;5071838;28;20449;-74
2021/09/10 00:04:02;;;;;;;8.40;7.60;;;;;;;20.18;65.29;156551.66;5066634;28;20472;-74
2021/09/10 00:06:39;;;;;;;9.30;8.40;;;;;;;20.14;65.41;156539.94;5068815;28;20450;-74
2021/09/10 00:09:16;;;;;;;8.33;7.53;;;;;;;20.05;65.64;156517.75;5066285;28;20446;-75
2021/09/10 00:11:51;;;;;;;8.50;7.70;;;;;;;20.03;65.82;156512.53;5063061;28;20865;-74
2021/09/10 00:14:27;;;;;;;8.83;8.03;;;;;;;19.95;66.45;156493.00;5077692;28;20805;-75
2021/09/10 00:17:03;;;;;;;9.13;8.33;;;;;;;19.92;66.69;156483.84;5056523;28;20920;-75
2021/09/10 00:19:38;;;;;;;8.70;7.90;;;;;;;19.87;66.99;156470.81;5070607;28;20812;-75
2021/09/10 00:22:14;;;;;;;9.60;8.60;;;;;;;19.84;67.19;156463.00;5066859;28;20968;-75
2021/09/10 00:24:51;;;;;;;9.10;7.87;;;;;;;19.84;67.43;156463.00;5079269;28;20469;-75
2021/09/10 00:27:26;;;;;;;9.53;8.63;;;;;;;19.81;67.67;156456.47;5070930;28;20434;-75
2021/09/10 00:30:02;;;;;;;9.70;8.80;;;;;;;19.77;67.88;156444.75;5057562;28;20451;-75
2021/09/10 00:32:37;;;;;;;9.50;8.60;;;;;;;19.74;67.94;156438.22;5072115;28;20476;-75
2021/09/10 00:35:13;;;;;;;9.43;7.80;;;;;;;19.78;67.86;156447.31;5063506;28;20439;-75
2021/09/10 00:37:48;;;;;;;9.13;8.23;;;;;;;19.77;68.10;156446.06;5084881;28;20885;-75
2021/09/10 00:40:25;;;;;;;9.13;8.23;;;;;;;19.77;68.25;156446.06;5065436;28;20447;-75
2021/09/10 00:43:00;;;;;;;9.33;8.40;;;;;;;19.76;68.36;156443.44;5053032;28;20438;-75
2021/09/10 00:45:36;;;;;;;8.47;7.73;;;;;;;19.74;68.71;156436.91;5080793;28;20474;-75
2021/09/10 00:48:11;;;;;;;9.23;8.40;;;;;;;19.71;68.68;156430.41;5083664;28;20435;-75
2021/09/10 00:50:48;;;;;;;9.30;8.40;;;;;;;19.65;69.05;156414.75;5070768;28;20439;-75
2021/09/10 00:53:24;;;;;;;10.20;9.30;;;;;;;19.66;69.15;156417.38;5071196;28;20443;-75
2021/09/10 00:56:00;;;;;;;9.97;8.97;;;;;;;19.64;69.32;156410.84;5061692;28;20840;-75
2021/09/10 00:58:36;;;;;;;9.83;8.90;;;;;;;19.67;69.28;156418.69;5069750;28;20937;-75
2021/09/10 01:01:11;;;;;;;10.07;9.17;;;;;;;19.68;69.34;156422.56;5081005;28;20449;-75
2021/09/10 01:03:47;;;;;;;9.10;8.20;;;;;;;19.68;69.23;156422.56;5065824;28;20820;-75
2021/09/10 01:06:24;;;;;;;9.53;8.73;;;;;;;19.66;69.47;156416.06;5057743;28;20885;-75
2021/09/10 01:09:01;;;;;;;9.60;8.70;;;;;;;19.68;69.33;156421.25;5050544;28;20423;-74
2021/09/10 01:11:38;;;;;;;9.10;8.20;;;;;;;19.67;69.54;156418.69;5055992;28;20446;-75
2021/09/10 01:14:16;;;;;;;10.17;9.27;;;;;;;19.66;69.52;156416.06;5066864;28;20434;-74
2021/09/10 01:16:51;;;;;;;9.20;8.40;;;;;;;19.67;69.58;156418.69;5070860;28;20864;-75
2021/09/10 01:19:29;;;;;;;11.67;8.87;;;;;;;19.63;69.63;156408.22;5070669;28;20438;-75
2021/09/10 01:22:06;;;;;;;9.37;8.47;;;;;;;19.64;69.83;156410.84;5049482;28;20545;-75
2021/09/10 01:25:05;;;;;;;10.13;9.23;;;;;;;19.67;69.73;156418.69;5052541;28;20561;-75
2021/09/10 01:27:44;;;;;;;10.73;9.60;;;;;;;19.62;70.04;156405.66;5070586;28;20537;-75
2021/09/10 01:30:21;;;;;;;9.37;8.50;;;;;;;19.61;70.21;156404.34;5055252;28;20520;-75
2021/09/10 01:32:59;;;;;;;10.37;8.60;;;;;;;19.61;70.05;156403.03;5068417;28;20442;-75
2021/09/10 01:35:35;;;;;;;9.00;8.10;;;;;;;19.60;70.43;156400.41;5057838;28;20435;-75
2021/09/10 01:38:11;;;;;;;10.37;9.37;;;;;;;19.59;70.58;156399.09;5050435;28;20435;-74
2021/09/10 01:40:48;;;;;;;10.10;9.10;;;;;;;19.58;70.66;156395.19;5050342;28;20533;-75
2021/09/10 01:43:23;;;;;;;9.90;8.90;;;;;;;19.61;70.48;156403.03;5070080;28;20438;-75
2021/09/10 01:45:58;;;;;;;9.30;8.50;;;;;;;19.65;70.25;156413.44;5070620;28;20480;-75
2021/09/10 01:48:34;;;;;;;10.10;9.20;;;;;;;19.69;70.10;156423.88;5052765;28;20446;-75
2021/09/10 01:51:09;;;;;;;10.07;9.17;;;;;;;19.69;70.22;156425.19;5050623;28;20450;-75
2021/09/10 01:53:46;;;;;;;10.87;9.77;;;;;;;19.69;70.21;156425.19;5072852;28;20445;-75
2021/09/10 01:56:23;;;;;;;10.17;9.10;;;;;;;19.65;70.41;156413.44;5064791;28;20454;-75
2021/09/10 01:58:59;;;;;;;10.70;9.70;;;;;;;19.66;70.36;156416.06;5067540;28;20842;-75
2021/09/10 02:01:35;;;;;;;10.07;9.07;;;;;;;19.66;70.39;156416.06;5068457;28;20442;-75
2021/09/10 02:04:10;;;;;;;10.10;9.20;;;;;;;19.65;70.37;156414.75;5073284;28;20431;-75
2021/09/10 02:06:46;;;;;;;9.50;8.63;;;;;;;19.63;70.58;156408.22;5056793;28;20470;-75
2021/09/10 02:09:21;;;;;;;9.30;8.40;;;;;;;19.64;70.82;156410.84;5053022;28;20946;-74
2021/09/10 02:11:58;;;;;;;10.27;9.10;;;;;;;19.58;70.83;156395.19;5070792;28;20490;-75
2021/09/10 02:14:35;;;;;;;10.30;9.33;;;;;;;19.54;70.96;156384.78;5053397;28;20922;-75
2021/09/10 02:17:11;;;;;;;9.63;8.80;;;;;;;19.49;71.13;156371.72;5057055;28;20455;-75
2021/09/10 02:19:46;;;;;;;10.63;9.73;;;;;;;19.48;71.24;156370.44;5072013;28;20836;-75
2021/09/10 02:22:22;;;;;;;10.83;9.83;;;;;;;19.42;71.51;156356.09;5069894;28;20446;-75
2021/09/10 02:24:57;;;;;;;11.10;10.10;;;;;;;19.33;71.79;156332.56;5053676;28;20833;-75
2021/09/10 02:27:34;;;;;;;10.17;9.17;;;;;;;19.33;72.01;156332.56;5066865;28;20441;-75
2021/09/10 02:30:11;;;;;;;10.70;9.70;;;;;;;19.27;72.56;156316.91;5073278;28;20818;-75
2021/09/10 02:32:46;;;;;;;10.23;9.23;;;;;;;19.25;72.71;156310.41;5073666;28;20445;-75
2021/09/10 02:35:22;;;;;;;9.37;8.43;;;;;;;19.20;73.01;156297.38;5067676;28;20426;-75
2021/09/10 02:37:57;;;;;;;10.50;9.50;;;;;;;19.18;73.32;156293.50;5073357;28;20932;-75
2021/09/10 02:40:33;;;;;;;10.27;9.27;;;;;;;19.15;73.40;156284.34;5068077;28;20882;-74
2021/09/10 02:43:10;;;;;;;9.63;8.73;;;;;;;19.14;73.47;156283.03;5055055;28;20451;-75
2021/09/10 02:45:45;;;;;;;10.43;9.53;;;;;;;19.08;73.97;156267.44;5054134;28;20482;-74
2021/09/10 02:48:21;;;;;;;9.87;8.90;;;;;;;19.06;74.23;156260.91;5068889;28;20450;-74
2021/09/10 02:50:56;;;;;;;10.60;9.50;;;;;;;19.07;74.70;156263.50;5070481;28;20458;-74
2021/09/10 02:53:32;;;;;;;10.47;9.40;;;;;;;19.07;74.26;156264.81;5070031;28;20451;-75
2021/09/10 02:56:08;;;;;;;10.03;9.13;;;;;;;19.08;74.41;156267.44;5070188;28;20442;-75
2021/09/10 02:58:44;;;;;;;11.30;10.30;;;;;;;19.04;74.70;156256.97;5067691;28;20450;-74
2021/09/10 03:01:21;;;;;;;10.47;9.57;;;;;;;19.07;74.63;156263.50;5055143;28;20474;-75
2021/09/10 03:03:57;;;;;;;10.77;9.53;;;;;;;19.03;74.97;156254.41;5068269;28;20450;-75
2021/09/10 03:06:33;;;;;;;11.13;10.13;;;;;;;19.01;75.12;156249.16;5061245;28;20536;-74
2021/09/10 03:09:08;;;;;;;11.20;10.07;;;;;;;18.98;75.54;156241.38;5072114;28;20422;-74
2021/09/10 03:11:44;;;;;;;11.03;9.87;;;;;;;18.99;75.62;156243.97;5055995;28;20449;-74
2021/09/10 03:14:21;;;;;;;10.90;9.80;;;;;;;18.96;75.59;156236.13;5064032;28;20438;-74
2021/09/10 03:16:56;;;;;;;10.73;9.73;;;;;;;18.96;75.84;156236.13;5058019;28;20458;-74
2021/09/10 03:19:32;;;;;;;10.47;9.47;;;;;;;18.97;75.93;156238.75;5053841;28;20925;-74
2021/09/10 03:22:07;;;;;;;11.07;10.03;;;;;;;19.00;76.10;156246.59;5065140;28;20446;-74
2021/09/10 03:24:43;;;;;;;10.80;9.30;;;;;;;19.01;75.94;156249.16;5072318;28;20441;-74
2021/09/10 03:27:18;;;;;;;11.13;10.13;;;;;;;19.05;75.86;156259.59;5074182;28;20430;-74
2021/09/10 03:29:55;;;;;;;11.23;9.93;;;;;;;19.01;76.08;156249.16;5065416;28;20447;-74
2021/09/10 03:32:31;;;;;;;11.40;10.30;;;;;;;19.01;76.39;156247.91;5055435;28;20446;-75
2021/09/10 03:35:07;;;;;;;10.60;9.57;;;;;;;19.04;76.39;156256.97;5064877;28;20443;-75
2021/09/10 03:37:42;;;;;;;10.83;9.83;;;;;;;19.05;76.09;156258.28;5071474;28;20438;-75
2021/09/10 03:40:18;;;;;;;11.10;10.00;;;;;;;19.04;76.16;156256.97;5086466;28;20442;-75
2021/09/10 03:42:53;;;;;;;11.90;10.47;;;;;;;19.03;76.27;156253.09;5071120;28;20797;-74
2021/09/10 03:45:30;;;;;;;10.87;9.80;;;;;;;19.01;76.38;156249.16;5065452;28;20864;-75
2021/09/10 03:48:06;;;;;;;12.13;11.03;;;;;;;19.00;76.33;156245.28;5059485;28;20640;-76
2021/09/10 03:50:41;;;;;;;11.03;9.93;;;;;;;18.96;76.43;156234.81;5063514;28;20813;-75
2021/09/10 03:53:17;;;;;;;12.03;10.83;;;;;;;18.93;76.48;156228.31;5073183;28;20925;-74
2021/09/10 03:55:52;;;;;;;12.33;10.47;;;;;;;18.92;76.60;156224.41;5070621;28;20442;-74
2021/09/10 03:58:28;;;;;;;11.07;9.97;;;;;;;18.85;77.00;156208.78;5052245;28;20451;-75
2021/09/10 04:01:05;;;;;;;11.33;10.33;;;;;;;18.79;76.80;156191.84;5053389;28;20439;-75
2021/09/10 04:03:41;;;;;;;12.80;10.87;;;;;;;18.81;76.90;156197.06;5056775;28;20457;-74
2021/09/10 04:06:16;;;;;;;11.40;10.30;;;;;;;18.81;76.71;156197.06;5066429;28;20482;-74
2021/09/10 04:08:53;;;;;;;10.83;9.80;;;;;;;18.75;77.21;156181.41;5066537;28;20439;-75
2021/09/10 04:11:30;;;;;;;10.83;9.83;;;;;;;18.77;77.25;156186.66;5068313;28;20817;-74
2021/09/10 04:14:07;;;;;;;10.37;9.37;;;;;;;18.76;77.12;156185.34;5072233;28;20446;-75
2021/09/10 04:16:44;;;;;;;11.80;10.53;;;;;;;18.76;77.18;156184.03;5072221;28;20442;-74
2021/09/10 04:19:20;;;;;;;12.90;9.97;;;;;;;18.71;77.62;156172.31;5072124;28;20450;-74
2021/09/10 04:21:55;;;;;;;11.03;10.10;;;;;;;18.71;78.12;156171.00;5063308;28;20789;-75
2021/09/10 04:24:31;;;;;;;15.20;10.80;;;;;;;18.71;78.21;156171.00;5068745;28;20488;-74
2021/09/10 04:27:06;;;;;;;11.67;10.40;;;;;;;18.72;77.89;156174.91;5069992;28;20504;-75
2021/09/10 04:29:42;;;;;;;13.07;11.77;;;;;;;18.64;78.86;156152.75;5071507;28;20446;-75
2021/09/10 04:32:19;;;;;;;11.80;10.60;;;;;;;18.62;78.82;156148.84;5047383;28;20541;-75
2021/09/10 04:34:54;;;;;;;12.63;11.10;;;;;;;18.55;79.24;156130.63;5068026;28;20468;-75
2021/09/10 04:37:30;;;;;;;12.10;11.00;;;;;;;18.54;79.59;156126.69;5057960;28;20445;-75
2021/09/10 04:40:07;;;;;;;11.73;10.63;;;;;;;18.48;79.90;156111.09;5053569;28;20430;-76
2021/09/10 04:42:43;;;;;;;11.37;10.37;;;;;;;18.49;79.95;156113.66;5060922;28;20552;-76
2021/09/10 04:45:19;;;;;;;12.63;11.50;;;;;;;18.46;80.03;156105.81;5071104;28;20438;-76
2021/09/10 04:47:55;;;;;;;12.97;11.77;;;;;;;18.45;79.91;156104.53;5067958;28;21063;-75
2021/09/10 04:50:31;;;;;;;11.37;10.17;;;;;;;18.44;80.06;156101.91;5073558;28;20536;-76
2021/09/10 04:53:06;;;;;;;12.50;11.40;;;;;;;18.38;80.24;156084.97;5081200;28;20477;-76
2021/09/10 04:55:41;;;;;;;11.27;10.30;;;;;;;18.33;80.64;156071.94;5063988;28;20659;-76
2021/09/10 04:58:17;;;;;;;12.30;11.10;;;;;;;18.25;80.79;156053.72;5061055;28;20473;-76
2021/09/10 05:00:52;;;;;;;11.60;10.50;;;;;;;18.22;81.07;156045.91;5054207;28;20536;-76
2021/09/10 05:03:31;;;;;;;12.07;10.63;;;;;;;18.22;81.24;156045.91;5072011;28;20474;-75
2021/09/10 05:06:07;;;;;;;12.73;11.50;;;;;;;18.20;81.26;156040.69;5071859;28;20474;-75
2021/09/10 05:08:42;;;;;;;13.50;11.03;;;;;;;18.20;81.35;156040.69;5060421;28;20442;-76
2021/09/10 05:11:18;;;;;;;12.20;11.00;;;;;;;18.19;81.83;156036.75;5063687;28;20462;-76
2021/09/10 05:13:53;;;;;;;12.10;10.87;;;;;;;18.19;82.23;156036.75;5052524;28;20790;-75
2021/09/10 05:16:29;;;;;;;11.70;10.50;;;;;;;18.25;81.67;156053.72;5069926;28;20532;-74
2021/09/10 05:19:06;;;;;;;12.50;11.30;;;;;;;18.24;81.79;156051.09;5069296;28;20453;-74
2021/09/10 05:21:41;;;;;;;12.87;11.63;;;;;;;18.20;82.30;156039.38;5070760;28;20449;-74
2021/09/10 05:24:17;;;;;;;13.13;11.80;;;;;;;18.20;82.50;156039.38;5063321;28;20875;-75
2021/09/10 05:26:52;;;;;;;13.17;11.30;;;;;;;18.18;82.97;156035.50;5062909;28;20558;-75
2021/09/10 05:29:28;;;;;;;14.20;11.90;;;;;;;18.21;83.10;156042.00;5063848;28;20451;-75
2021/09/10 05:32:04;;;;;;;13.40;11.00;;;;;;;18.20;83.54;156039.38;5068624;28;20449;-75
2021/09/10 05:34:41;;;;;;;12.00;10.80;;;;;;;18.21;83.64;156043.28;5074452;28;20477;-75
2021/09/10 05:37:16;;;;;;;14.57;11.33;;;;;;;18.27;83.24;156058.91;5071657;28;20845;-75
2021/09/10 05:39:51;;;;;;;14.80;11.33;;;;;;;18.31;83.50;156066.75;5059764;28;20450;-75
2021/09/10 05:42:27;;;;;;;13.20;11.90;;;;;;;18.33;83.18;156071.94;5069111;28;20793;-75
2021/09/10 05:45:02;;;;;;;13.77;12.47;;;;;;;18.38;83.26;156084.97;5074658;28;20464;-75
2021/09/10 05:47:38;;;;;;;12.57;11.30;;;;;;;18.39;83.40;156088.88;5069306;28;20960;-75
2021/09/10 05:50:15;;;;;;;13.50;12.17;;;;;;;18.43;83.25;156097.97;5057495;28;20536;-75
2021/09/10 05:52:50;;;;;;;12.70;11.40;;;;;;;18.46;83.36;156105.81;5073923;28;20434;-75
2021/09/10 05:55:26;;;;;;;12.00;10.90;;;;;;;18.51;83.17;156118.88;5076185;28;20430;-75
2021/09/10 05:58:01;;;;;;;13.23;12.03;;;;;;;18.65;82.67;156156.66;5073493;28;20952;-75
2021/09/10 06:00:37;;;;;;;15.50;11.70;;;;;;;18.77;81.69;156187.91;5067673;28;20446;-75
2021/09/10 06:03:13;;;;;;;13.37;12.07;;;;;;;18.96;81.67;156236.13;5056459;28;20808;-79
2021/09/10 06:05:50;;;;;;;12.40;11.20;;;;;;;19.16;80.66;156288.28;5073847;28;20414;-75
2021/09/10 06:08:25;;;;;;;11.87;10.67;;;;;;;19.37;79.59;156341.72;5062465;28;20446;-75
2021/09/10 06:11:01;;;;;;;12.57;11.27;;;;;;;19.55;78.96;156388.69;5055316;28;20439;-75
2021/09/10 06:13:36;;;;;;;12.80;11.20;;;;;;;19.76;78.22;156443.44;5069263;28;20446;-75
2021/09/10 06:16:12;;;;;;;12.83;11.63;;;;;;;19.93;77.32;156486.47;5057587;28;20941;-75
2021/09/10 06:18:47;;;;;;;11.73;10.53;;;;;;;20.19;76.43;156552.97;5071781;28;20481;-75
2021/09/10 06:21:24;;;;;;;11.73;10.47;;;;;;;20.30;75.44;156583.03;5061125;28;20451;-75
2021/09/10 06:23:59;;;;;;;11.30;10.20;;;;;;;20.43;75.33;156616.94;5065844;28;20441;-75
2021/09/10 06:26:35;;;;;;;12.87;11.50;;;;;;;20.60;74.63;156661.28;5073642;28;20596;-75
2021/09/10 06:29:12;;;;;;;12.90;11.27;;;;;;;20.64;73.45;156671.72;5058196;28;20434;-75
2021/09/10 06:31:49;;;;;;;13.40;12.00;;;;;;;20.74;73.12;156696.50;5069685;28;20445;-75
2021/09/10 06:34:26;;;;;;;12.60;11.50;;;;;;;20.52;73.28;156640.41;5057651;28;20446;-75
2021/09/10 06:37:03;;;;;;;12.60;11.40;;;;;;;20.45;73.85;156622.16;5060326;28;20446;-75
2021/09/10 06:39:39;;;;;;;14.13;11.20;;;;;;;20.47;73.48;156627.34;5054325;28;20419;-75
2021/09/10 06:42:14;;;;;;;18.80;11.37;;;;;;;20.63;73.83;156669.09;5073281;28;20533;-75
2021/09/10 06:44:54;;;;;;;14.80;12.50;;;;;;;20.83;73.29;156718.69;5073211;28;20865;-75
2021/09/10 06:47:30;;;;;;;13.70;11.53;;;;;;;21.03;72.76;156770.88;5069840;28;20470;-76
2021/09/10 06:50:09;;;;;;;13.80;12.33;;;;;;;21.22;71.67;156820.53;5069165;28;20964;-75
2021/09/10 06:52:46;;;;;;;13.13;11.80;;;;;;;21.56;70.35;156907.97;5072249;28;20435;-75
2021/09/10 06:55:21;;;;;;;13.80;11.70;;;;;;;21.88;68.87;156991.56;5052951;28;20485;-75
2021/09/10 06:57:57;;;;;;;13.97;12.40;;;;;;;22.11;68.22;157050.31;5063135;28;20453;-76
2021/09/10 07:00:32;;;;;;;13.10;11.50;;;;;;;22.22;67.13;157080.38;5069181;28;20435;-75
2021/09/10 07:03:08;;;;;;;13.70;11.63;;;;;;;22.49;65.54;157149.59;5065470;28;21128;-76
2021/09/10 07:05:43;;;;;;;14.13;12.40;;;;;;;22.69;64.98;157200.63;5067776;28;20446;-76
2021/09/10 07:08:20;;;;;;;11.83;10.73;;;;;;;22.84;64.00;157239.78;5068824;28;20508;-76
2021/09/10 07:10:57;;;;;;;11.37;10.37;;;;;;;22.86;63.37;157245.00;5067885;28;20972;-76
2021/09/10 07:13:32;;;;;;;10.67;9.67;;;;;;;23.10;63.26;157306.41;5067519;28;20442;-76
2021/09/10 07:16:08;;;;;;;13.13;11.93;;;;;;;23.35;62.11;157373.06;5070590;28;20453;-76
2021/09/10 07:18:44;;;;;;;11.73;10.53;;;;;;;23.29;62.01;157356.09;5050071;28;20446;-76
2021/09/10 07:21:20;;;;;;;13.53;10.93;;;;;;;23.56;62.19;157426.75;5066942;28;20453;-76
2021/09/10 07:23:58;;;;;;;12.00;10.90;;;;;;;23.83;60.83;157497.28;5070620;28;20936;-76
2021/09/10 07:26:34;;;;;;;11.40;10.40;;;;;;;24.01;59.71;157544.34;5070942;28;20486;-76
2021/09/10 07:29:09;;;;;;;11.40;10.13;;;;;;;24.35;58.62;157630.75;5060176;28;20447;-76
2021/09/10 07:31:45;;;;;;;11.20;10.07;;;;;;;24.70;58.17;157723.59;5036241;28;20446;-76
2021/09/10 07:34:21;;;;;;;11.90;10.80;;;;;;;24.82;57.87;157753.75;5067772;28;20438;-76
2021/09/10 07:36:59;;;;;;;10.27;9.47;;;;;;;24.76;57.29;157737.97;5065973;28;20454;-76
2021/09/10 07:39:36;;;;;;;10.30;9.33;;;;;;;24.82;57.66;157753.75;5053377;28;20450;-76
2021/09/10 07:42:11;;;;;;;10.30;9.40;;;;;;;24.77;57.26;157741.94;5071235;28;20446;-76
2021/09/10 07:44:47;;;;;;;11.17;10.17;;;;;;;24.79;58.01;157745.88;5071428;28;20445;-76
2021/09/10 07:47:22;;;;;;;12.53;11.23;;;;;;;24.86;56.99;157764.19;5071456;28;20477;-76
2021/09/10 07:49:58;;;;;;;11.80;10.70;;;;;;;25.05;57.32;157813.91;5076744;28;20447;-76
2021/09/10 07:52:34;;;;;;;11.77;10.47;;;;;;;25.36;56.48;157895.03;5066375;28;20951;-76
2021/09/10 07:55:11;;;;;;;10.10;9.20;;;;;;;25.43;55.92;157913.41;5061531;28;20472;-76
2021/09/10 07:57:47;;;;;;;11.13;10.03;;;;;;;25.35;56.41;157891.13;5082269;28;20443;-76
2021/09/10 08:00:22;;;;;;;11.47;10.47;;;;;;;25.55;55.49;157942.25;5052833;28;20442;-76
2021/09/10 08:03:06;;;;;;;10.30;9.40;;;;;;;25.59;55.55;157952.69;5068038;28;20430;-76
2021/09/10 08:05:44;;;;;;;11.23;10.07;;;;;;;25.84;55.68;158018.19;5060125;28;20427;-76
2021/09/10 08:08:19;;;;;;;10.47;9.07;;;;;;;25.96;55.21;158049.59;5051908;28;20470;-76
2021/09/10 08:10:57;;;;;;;10.90;10.00;;;;;;;26.27;53.66;158129.47;5097802;22;21009;-83
2021/09/10 08:13:33;;;;;;;11.00;9.40;;;;;;;26.39;54.13;158162.25;5067780;28;20837;-84
2021/09/10 08:16:10;;;;;;;10.90;10.00;;;;;;;26.72;54.05;158246.03;5065541;28;20926;-84
2021/09/10 08:18:47;;;;;;;10.00;9.10;;;;;;;26.75;53.44;158253.91;5081329;28;20514;-84
2021/09/10 08:21:24;;;;;;;9.47;8.57;;;;;;;26.73;52.60;158248.69;5076648;28;20932;-84
2021/09/10 08:24:01;;;;;;;8.27;7.63;;;;;;;26.98;51.20;158314.25;5076054;28;20469;-84
2021/09/10 08:26:40;;;;;;;9.20;8.40;;;;;;;27.07;51.05;158337.81;5087200;28;20831;-83
2021/09/10 08:29:23;;;;;;;8.23;7.63;;;;;;;27.11;50.27;158349.59;5074993;28;20433;-84
2021/09/10 08:32:00;;;;;;;8.50;7.80;;;;;;;27.29;50.23;158395.47;5072910;28;20540;-84
2021/09/10 08:34:38;;;;;;;8.67;7.83;;;;;;;26.97;49.39;158312.94;5091701;28;20833;-84
2021/09/10 08:37:16;;;;;;;9.20;8.30;;;;;;;26.82;50.27;158273.59;5072835;28;20448;-83
2021/09/10 08:39:53;;;;;;;7.73;7.07;;;;;;;26.37;50.55;158156.97;5073858;28;20433;-83
2021/09/10 08:42:31;;;;;;;9.20;7.20;;;;;;;26.34;51.61;158147.84;5070709;28;20442;-84
2021/09/10 08:45:09;;;;;;;8.30;7.57;;;;;;;26.38;51.63;158158.31;5063988;28;20441;-84
2021/09/10 08:47:47;;;;;;;8.10;7.37;;;;;;;26.20;51.24;158112.47;5066004;28;21054;-84
2021/09/10 08:50:25;;;;;;;10.20;7.90;;;;;;;26.06;51.80;158074.44;5070000;28;21036;-84
2021/09/10 08:53:02;;;;;;;7.83;7.20;;;;;;;26.13;51.56;158094.16;5067834;28;20434;-84
2021/09/10 08:55:39;;;;;;;8.70;8.00;;;;;;;26.22;52.02;158117.72;5068432;28;20861;-84
2021/09/10 08:58:16;;;;;;;9.07;8.27;;;;;;;26.08;51.46;158079.72;5089511;22;20755;-84
2021/09/10 09:00:51;;;;;;;7.83;7.23;;;;;;;25.97;51.60;158052.22;5050227;28;20537;-84
2021/09/10 09:03:28;;;;;;;8.37;7.67;;;;;;;26.10;51.53;158086.25;5089045;28;20449;-84
2021/09/10 09:06:03;;;;;;;8.43;7.73;;;;;;;26.19;51.84;158109.84;5065625;28;20450;-84
2021/09/10 09:08:40;;;;;;;8.97;8.10;;;;;;;26.31;51.83;158139.97;5072620;28;20966;-83
2021/09/10 09:11:15;;;;;;;8.60;7.90;;;;;;;26.24;52.40;158122.94;5069928;28;20442;-84
2021/09/10 09:13:55;;;;;;;8.37;7.67;;;;;;;26.19;52.17;158109.84;5090325;28;20536;-83
2021/09/10 09:16:31;;;;;;;8.90;7.77;;;;;;;26.28;51.96;158133.44;5071350;28;20448;-83
2021/09/10 09:19:08;;;;;;;9.53;8.70;;;;;;;26.36;52.50;158154.41;5065725;28;20535;-83
2021/09/10 09:21:44;;;;;;;8.63;7.90;;;;;;;26.42;52.18;158170.06;5062930;28;20441;-84
2021/09/10 09:24:21;;;;;;;8.70;7.90;;;;;;;26.50;50.98;158189.75;5055807;28;20445;-84
2021/09/10 09:26:56;;;;;;;8.60;7.90;;;;;;;26.43;51.81;158171.38;5053386;28;20434;-84
2021/09/10 09:29:33;;;;;;;10.03;9.23;;;;;;;26.39;52.62;158162.25;5079310;28;20429;-84
2021/09/10 09:32:09;;;;;;;10.33;9.17;;;;;;;26.19;53.35;158108.53;5055722;28;20430;-83
2021/09/10 09:34:46;;;;;;;8.37;7.67;;;;;;;26.16;53.96;158100.72;5084855;28;20943;-83
2021/09/10 09:37:27;;;;;;;8.83;8.03;;;;;;;26.26;54.16;158126.88;5091434;28;20433;-83
2021/09/10 09:40:03;;;;;;;8.80;8.00;;;;;;;26.25;53.19;158125.56;5047000;28;20849;-83
2021/09/10 09:42:38;;;;;;;9.17;8.20;;;;;;;26.24;51.47;158121.66;5062387;28;20433;-83
2021/09/10 09:45:16;;;;;;;8.60;8.00;;;;;;;26.19;51.40;158108.53;5055756;28;20801;-84
2021/09/10 09:47:52;;;;;;;9.10;8.33;;;;;;;26.16;52.40;158101.97;5060031;28;20478;-83
2021/09/10 09:50:30;;;;;;;8.43;7.70;;;;;;;26.22;51.79;158117.72;5082294;28;20448;-83
2021/09/10 09:53:07;;;;;;;8.60;7.90;;;;;;;26.17;51.70;158104.63;5090750;28;20441;-83
2021/09/10 09:55:43;;;;;;;8.83;8.13;;;;;;;26.02;52.83;158065.31;5072861;28;20473;-83
2021/09/10 09:58:19;;;;;;;10.00;9.10;;;;;;;25.99;51.83;158057.44;5070154;28;20569;-83
2021/09/10 10:00:56;;;;;;;9.73;8.93;;;;;;;25.81;53.24;158010.31;5067247;28;20433;-83
2021/09/10 10:03:31;;;;;;;9.63;8.73;;;;;;;25.85;53.32;158020.78;5068516;28;20454;-83
2021/09/10 10:06:14;;;;;;;8.97;8.17;;;;;;;25.83;53.23;158015.53;5064170;28;20445;-83
2021/09/10 10:08:53;;;;;;;8.80;8.03;;;;;;;25.94;52.91;158044.34;5066536;28;20567;-84
2021/09/10 10:11:32;;;;;;;8.90;8.20;;;;;;;25.89;52.91;158031.25;5071928;28;20478;-83
2021/09/10 10:14:07;;;;;;;9.60;8.70;;;;;;;25.93;52.90;158041.72;5082629;28;20445;-83
2021/09/10 10:16:37;;;;;;;10.77;7.87;;;;;;;25.90;52.48;158035.19;5081690;28;20802;-84
2021/09/10 10:19:48;;;;;;;9.50;8.43;;;;;;;25.98;53.05;158056.13;5070296;28;20457;-83
2021/09/10 10:22:33;;;;;;;9.40;8.07;;;;;;;26.03;52.35;158067.88;5084707;28;20441;-83
2021/09/10 10:25:10;;;;;;;9.20;8.40;;;;;;;25.98;52.59;158054.81;5090215;28;20430;-83
2021/09/10 10:27:46;;;;;;;9.00;8.30;;;;;;;26.08;52.51;158080.97;5085341;28;20473;-83
2021/09/10 10:30:47;;;;;;;9.77;8.97;;;;;;;26.14;52.22;158096.75;5089516;28;20524;-83
2021/09/10 10:33:29;;;;;;;8.80;8.10;;;;;;;26.11;51.92;158087.53;5076357;28;20926;-83
2021/09/10 10:36:32;;;;;;;9.13;8.23;;;;;;;26.04;52.12;158070.53;5061739;28;20453;-83
2021/09/10 10:39:20;;;;;;;9.47;8.57;;;;;;;26.15;52.99;158099.41;5076453;28;20441;-83
2021/09/10 10:41:58;;;;;;;9.17;8.33;;;;;;;26.16;52.95;158101.97;5093822;28;20839;-83
2021/09/10 10:44:49;;;;;;;9.50;8.70;;;;;;;25.95;52.68;158046.94;5091558;28;20457;-83
2021/09/10 10:47:35;;;;;;;10.03;8.63;;;;;;;25.91;52.87;158036.50;5092404;28;20465;-83
2021/09/10 10:53:04;;;;;;;9.27;8.47;;;;;;;25.98;50.79;158054.81;5085568;28;20523;-82
2021/09/10 10:55:40;;;;;;;8.27;7.03;;;;;;;26.00;50.49;158060.03;5088354;28;20445;-82
2021/09/10 10:58:22;;;;;;;8.37;7.77;;;;;;;25.88;51.56;158028.63;5068203;28;20442;-82
2021/09/10 11:01:00;;;;;;;8.60;7.90;;;;;;;25.75;50.70;157995.91;5066955;28;20454;-81
2021/09/10 11:03:37;;;;;;;8.47;7.67;;;;;;;25.71;52.18;157984.09;5066558;28;20450;-82
2021/09/10 11:06:27;;;;;;;8.47;7.70;;;;;;;25.73;51.28;157989.38;5054054;28;20443;-81
2021/09/10 11:09:08;;;;;;;8.73;7.93;;;;;;;25.64;51.46;157965.78;5068364;28;20929;-81
2021/09/10 11:11:43;;;;;;;8.10;7.50;;;;;;;25.73;51.11;157990.69;5083754;28;20462;-82
2021/09/10 11:14:30;;;;;;;8.37;7.47;;;;;;;25.85;51.49;158020.78;5067468;28;20446;-81
2021/09/10 11:17:10;;;;;;;9.00;7.90;;;;;;;25.87;51.33;158026.00;5067152;28;20458;-81
2021/09/10 11:19:47;;;;;;;9.60;8.80;;;;;;;25.88;51.42;158029.94;5064315;28;20431;-81
2021/09/10 11:22:22;;;;;;;8.80;8.03;;;;;;;25.83;52.76;158015.53;5056423;28;20540;-81
2021/09/10 11:25:07;;;;;;;9.00;8.20;;;;;;;25.79;52.95;158005.03;5067098;28;20952;-81
2021/09/10 11:27:43;;;;;;;8.47;7.67;;;;;;;25.69;52.26;157980.19;5063848;28;20442;-81
2021/09/10 11:30:18;;;;;;;8.10;7.40;;;;;;;25.74;52.25;157991.97;5067213;28;20808;-81
2021/09/10 11:32:58;;;;;;;9.63;8.60;;;;;;;25.80;52.17;158007.69;5063643;28;20496;-81
2021/09/10 11:35:38;;;;;;;9.07;8.27;;;;;;;25.87;51.27;158027.31;5067047;28;20434;-82
2021/09/10 11:38:16;;;;;;;8.77;7.97;;;;;;;25.83;51.79;158016.88;5067777;28;20438;-82
2021/09/10 11:40:55;;;;;;;8.40;7.70;;;;;;;25.78;52.44;158003.78;5067004;28;20779;-82
2021/09/10 11:43:34;;;;;;;8.93;8.23;;;;;;;25.75;52.13;157995.91;5065545;28;20446;-82
2021/09/10 11:46:11;;;;;;;8.83;7.93;;;;;;;25.78;51.81;158003.78;5067725;28;20917;-81
2021/09/10 11:48:49;;;;;;;9.50;8.70;;;;;;;25.79;52.22;158006.38;5082561;28;20936;-81
2021/09/10 11:51:45;;;;;;;9.37;8.47;;;;;;;25.70;53.35;157981.50;5082259;28;20473;-81
2021/09/10 11:54:21;;;;;;;9.37;8.47;;;;;;;25.73;52.41;157989.38;5065625;28;20534;-82
2021/09/10 11:57:00;;;;;;;8.97;8.17;;;;;;;25.77;53.64;157999.81;5077456;28;20486;-81
2021/09/10 11:59:36;;;;;;;9.00;8.20;;;;;;;25.78;52.51;158002.47;5072807;28;20437;-82
2021/09/10 12:02:12;;;;;;;8.57;7.87;;;;;;;25.78;52.74;158002.47;5051050;28;20442;-82
2021/09/10 12:04:55;;;;;;;8.37;7.57;;;;;;;25.94;52.24;158044.34;5050479;28;20553;-81